X  Chiuso Dati meteorologici dell'aviazione (METAR)     LIPX Verona-Villafranca Valerio Catullo Airport
Temperatura
22°C Temperatura
16°C Punto di rugiada
69% Umidità



Vento
5 KM/H
3 MPH
1 M/S
3 KTS



340°
NNO
Condizioni attuali

Sereno Sereno
Pressione 1018.92 (hPa) - 30.09 (inHg)
Visibilità 6.2 (miglio) - 10 (km)
Aeroporto
Codice-Aeroporto LIPX

Posizione: Verona-Villafranca Valerio Catullo Airport
Distanza: 50 (km)

Metar:
LIPX 092250Z 34003KT CAVOK 22/16 Q1019

Ore: 10-08-2022 00:50 CEST